Flight Track Log - Related Links

Times and Time Zones

All times are in EDT time to prevent confusion due to time zone crossing. See the DAL3606 flight status page for this flight to view local times or setup timezone preferences in your user account.

Time Position Orientation Groundspeed Altitude Reporting Facility
EDT Latitude Longitude Course Direction KTS MPH feet Rate Location/Type
Wed 12:02:25 PM 38.8833 -77.5167 180° South 201 231 4,600  Level Potomac TRACON
Wed 12:03:25 PM 38.8167 -77.5000 169° South 252 290 7,100 2,600 Climbing Potomac TRACON
Wed 12:04:25 PM 38.7500 -77.5333 201° Southwest 263 303 9,800 2,050 Climbing Potomac TRACON
Wed 12:05:00 PM 38.4959 -77.7395 230° Southwest  Level FlightAware Approximate
Wed 12:05:25 PM 38.6833 -77.5833 210° Southwest 306 352 11,200  Level Potomac TRACON
Wed 12:06:00 PM 38.4338 -77.8409 234° Southwest  Level FlightAware Approximate
Wed 12:06:55 PM 38.5553 -77.6892 213° Southwest 359 413 13,800  Level Washington Center
Wed 12:07:55 PM 38.4808 -77.7744 222° Southwest 365 420 16,100 1,950 Climbing Washington Center
Wed 12:08:55 PM 38.4222 -77.8894 237° Southwest 373 429 17,700 1,600 Climbing Washington Center
Wed 12:09:55 PM 38.3617 -78.0067 237° Southwest 386 444 19,300 1,650 Climbing Washington Center
Wed 12:10:55 PM 38.2989 -78.1236 236° Southwest 396 456 21,000 1,700 Climbing Washington Center
Wed 12:11:55 PM 38.2378 -78.2458 238° Southwest 408 470 22,700 1,500 Climbing Washington Center
Wed 12:12:55 PM 38.1703 -78.3675 235° Southwest 414 476 24,000 1,250 Climbing Washington Center
Wed 12:13:55 PM 38.1111 -78.4972 240° Southwest 424 488 25,200 1,300 Climbing Washington Center
Wed 12:14:55 PM 38.0681 -78.6328 248° West 424 488 26,600 1,537 Climbing Washington Center
Wed 12:15:56 PM 38.0228 -78.7681 247° West 424 488 28,300 1,400 Climbing Washington Center
Wed 12:16:55 PM 37.9753 -78.9031 246° West 424 488 29,400 857 Climbing Washington Center
Wed 12:17:55 PM 37.9278 -79.0406 246° West 424 488 30,000 300 Climbing Washington Center
Wed 12:18:55 PM 37.8528 -79.1792 236° Southwest 434 499 30,000 50 Level Washington Center
Wed 12:19:55 PM 37.7700 -79.2933 227° Southwest 439 505 30,100 900 Climbing Washington Center
Wed 12:20:55 PM 37.6872 -79.4047 227° Southwest 444 511 31,800 950 Climbing Washington Center
Wed 12:21:55 PM 37.6064 -79.5189 228° Southwest 438 504 32,000 100 Climbing Washington Center
Wed 12:22:55 PM 37.5233 -79.6297 227° Southwest 438 504 32,000  Level Washington Center
Wed 12:23:55 PM 37.4425 -79.7406 227° Southwest 438 504 32,000  Level Washington Center
Wed 12:24:55 PM 37.3592 -79.8561 228° Southwest 444 511 32,000  Level Washington Center
Wed 12:27:05 PM 37.1833 -80.0897 227° Southwest 430 495 32,000  Level Atlanta Center
Wed 12:28:05 PM 37.1075 -80.1922 227° Southwest 435 501 32,000  Level Atlanta Center
Wed 12:29:05 PM 37.0272 -80.2975 226° Southwest 430 495 32,000  Level Atlanta Center
Wed 12:30:05 PM 36.9453 -80.4106 228° Southwest 435 501 32,000  Level Atlanta Center
Wed 12:31:05 PM 36.8628 -80.5208 227° Southwest 435 501 32,000  Level Atlanta Center
Wed 12:32:05 PM 36.7744 -80.6361 226° Southwest 435 501 32,000  Level Atlanta Center
Wed 12:33:05 PM 36.6961 -80.7431 228° Southwest 430 495 32,000  Level Atlanta Center
Wed 12:34:05 PM 36.6133 -80.8525 227° Southwest 429 494 32,000  Level Atlanta Center
Wed 12:35:05 PM 36.5347 -80.9589 227° Southwest 429 494 32,000  Level Atlanta Center
Wed 12:36:05 PM 36.4519 -81.0653 226° Southwest 434 499 32,000  Level Atlanta Center
Wed 12:37:05 PM 36.3711 -81.1742 227° Southwest 434 499 32,000  Level Atlanta Center
Wed 12:38:05 PM 36.2900 -81.2825 227° Southwest 434 499 32,000  Level Atlanta Center
Wed 12:39:05 PM 36.2089 -81.3858 226° Southwest 426 490 32,000  Level Atlanta Center
Wed 12:40:05 PM 36.1239 -81.4989 227° Southwest 432 497 32,000  Level Atlanta Center
Wed 12:41:05 PM 36.0406 -81.6069 226° Southwest 437 503 32,000  Level Atlanta Center
Wed 12:42:05 PM 35.9569 -81.7144 226° Southwest 437 503 32,000  Level Atlanta Center
Wed 12:43:05 PM 35.8736 -81.8247 227° Southwest 435 501 32,000  Level Atlanta Center
Wed 12:44:05 PM 35.7878 -81.9319 225° Southwest 440 506 32,000  Level Atlanta Center
Wed 12:45:05 PM 35.7122 -82.0286 226° Southwest 435 501 32,000  Level Atlanta Center
Wed 12:46:05 PM 35.6283 -82.1378 227° Southwest 433 498 32,000  Level Atlanta Center
Wed 12:47:05 PM 35.5444 -82.2444 226° Southwest 433 498 32,000 -100 Level Atlanta Center
Wed 12:48:05 PM 35.4583 -82.3458 224° Southwest 433 498 31,800 -700 Descending Atlanta Center
Wed 12:49:05 PM 35.3719 -82.4417 222° Southwest 441 507 30,600 -1,100 Descending Atlanta Center
Wed 12:50:05 PM 35.2856 -82.5375 222° Southwest 430 495 29,600 -1,050 Descending Atlanta Center
Wed 12:51:05 PM 35.1989 -82.6281 221° Southwest 430 495 28,500 -1,100 Descending Atlanta Center
Wed 12:52:05 PM 35.1103 -82.7286 223° Southwest 430 495 27,400 -1,200 Descending Atlanta Center
Wed 12:53:05 PM 35.0156 -82.8342 222° Southwest 430 495 26,100 -1,200 Descending Atlanta Center
Wed 12:54:05 PM 34.9328 -82.9267 223° Southwest 425 489 25,000 -1,050 Descending Atlanta Center
Wed 12:55:05 PM 34.8481 -83.0189 222° Southwest 411 473 24,000 -500 Descending Atlanta Center
Wed 12:56:05 PM 34.7758 -83.0981 222° Southwest 405 466 24,000  Level Atlanta Center
Wed 12:57:05 PM 34.6950 -83.1850 221° Southwest 400 460 24,000  Level Atlanta Center
Wed 12:58:05 PM 34.6122 -83.2767 222° Southwest 400 460 24,000 -850 Level Atlanta Center
Wed 12:59:05 PM 34.5292 -83.3656 221° Southwest 406 467 22,300 -1,650 Descending Atlanta Center
Wed 01:00:05 PM 34.4606 -83.4392 222° Southwest 391 450 20,700 -1,900 Descending Atlanta Center
Wed 01:01:05 PM 34.3817 -83.5278 223° Southwest 365 420 18,500 -1,950 Descending Atlanta Center
Wed 01:02:05 PM 34.3028 -83.6089 220° Southwest 357 411 16,800 -1,750 Descending Atlanta Center
Wed 01:03:05 PM 34.2319 -83.6869 222° Southwest 345 397 15,000 -1,800 Descending Atlanta Center
Wed 01:04:05 PM 34.1656 -83.7603 222° Southwest 339 390 13,200 -1,500 Descending Atlanta Center
Wed 01:05:05 PM 34.0989 -83.8281 220° Southwest 333 383 12,000 -1,100 Descending Atlanta Center
Wed 01:06:05 PM 34.0447 -83.8908 224° Southwest 297 342 11,000 -1,200 Descending Atlanta Center
Wed 01:07:05 PM 33.9925 -83.9461 221° Southwest 265 305 9,600 -968 Descending Atlanta Center
Wed 01:08:09 PM 33.9333 -84.0000 217° Southwest 216 249 9,000 -968 Descending Atlanta TRACON
Wed 01:09:09 PM 33.9000 -84.0500 231° Southwest 201 231 7,600 -1,345 Descending Atlanta TRACON
Wed 01:10:05 PM 33.8589 -84.0789 210° Southwest 211 243 6,400 -828 Descending Atlanta Center
Wed 01:11:05 PM 33.7983 -84.0714 174° South 218 251 6,000 -350 Descending Atlanta Center
Wed 01:12:05 PM 33.7378 -84.0639 174° South 218 251 5,700 -652 Descending Atlanta Center
Wed 01:14:09 PM 33.6500 -84.1167 207° Southwest 186 214 4,000 -522 Descending Atlanta TRACON
Wed 01:15:09 PM 33.6500 -84.1833 270° West 187 215 4,100 -100 Climbing Atlanta TRACON
Wed 01:16:09 PM 33.6500 -84.2500 270° West 190 219 3,800 -300 Descending Atlanta TRACON

Login

Don't have an account? Register now (free) for customized features, flight alerts, and more!